Pine Galaxy — C6TT5 — position and weather

sailwx.info

Track history (hours):
 
Tides and Currents Weather Stations Pressure Air Temp Water Temp Dewpoint Dewpoint Depression Visibility Wind Speed Wind Dir Waves Ship Positions

Pine Galaxy

Last reported at 2016-Jul-09 01:05 UTC. Time now 2016-Jul-26 21:48 UTC.
Position N 22°17' E 114°06'.
Warning: this ship's position is 17 days out of date.

Length 147 m; draft 6.6 m.

Type: Tanker. MMSI: 311772000.

Date/timePositionNaut miles runAvg speedWind from/ knotsBaromVisibWave heightAir tempDewpointWater temp
2016-Jul-09 01:05N 22°17' E 114°06'0 0.0
2016-Jul-08 19:24N 22°17' E 114°06'0 0.1
2016-Jul-08 18:30N 22°17' E 114°06'0 0.1
2016-Jul-08 17:31N 22°17' E 114°06'0 0.0
2016-Jul-08 13:32N 22°17' E 114°06'  
2016-Jul-03 23:26N 29°49' E 123°11'117 9.9
2016-Jul-03 11:33N 31°18' E 121°43'1211.8
2016-Jul-03 10:33N 31°25' E 121°32'9 9.0
2016-Jul-03 09:33N 31°31' E 121°24'1312.7
2016-Jul-03 08:34N 31°39' E 121°13'1413.7
2016-Jul-03 07:32N 31°47' E 120°59'1312.9
2016-Jul-03 06:33N 31°57' E 120°51'1312.0
2016-Jul-03 05:28N 31°60' E 120°36'8 8.4
2016-Jul-03 04:33N 31°60' E 120°27'0 0.0
2016-Jul-02 04:33N 31°60' E 120°27'4 4.1
2016-Jul-02 03:33N 32°01' E 120°32'2 0.1
2016-Jul-01 06:29N 32°02' E 120°30'  
Track history (hours):
 
Tides and Currents Weather Stations Pressure Air Temp Water Temp Dewpoint Dewpoint Depression Visibility Wind Speed Wind Dir Waves Ship Positions

Pine Galaxy

Last reported at 2016-Jul-09 01:05 UTC. Time now 2016-Jul-26 21:48 UTC.
Position N 22°17' E 114°06'.
Warning: this ship's position is 17 days out of date.

Length 147 m; draft 6.6 m.

Type: Tanker. MMSI: 311772000.

Date/timePositionNaut miles runAvg speedWind from/ knotsBaromVisibWave heightAir tempDewpointWater temp
2016-Jul-09 01:05N 22°17' E 114°06'0 0.0
2016-Jul-08 19:24N 22°17' E 114°06'0 0.1
2016-Jul-08 18:30N 22°17' E 114°06'0 0.1
2016-Jul-08 17:31N 22°17' E 114°06'0 0.0
2016-Jul-08 13:32N 22°17' E 114°06'  
2016-Jul-03 23:26N 29°49' E 123°11'117 9.9
2016-Jul-03 11:33N 31°18' E 121°43'1211.8
2016-Jul-03 10:33N 31°25' E 121°32'9 9.0
2016-Jul-03 09:33N 31°31' E 121°24'1312.7
2016-Jul-03 08:34N 31°39' E 121°13'1413.7
2016-Jul-03 07:32N 31°47' E 120°59'1312.9
2016-Jul-03 06:33N 31°57' E 120°51'1312.0
2016-Jul-03 05:28N 31°60' E 120°36'8 8.4
2016-Jul-03 04:33N 31°60' E 120°27'0 0.0
2016-Jul-02 04:33N 31°60' E 120°27'4 4.1
2016-Jul-02 03:33N 32°01' E 120°32'2 0.1
2016-Jul-01 06:29N 32°02' E 120°30'  

Dump ship's entire track history